createdAt,value
2024-01-24T00:00:30.861Z,13.63
2024-01-24T00:02:58.215Z,11.93
2024-01-24T00:05:25.397Z,10.90
2024-01-24T00:07:52.503Z,10.82
2024-01-24T00:10:19.639Z,10.75
2024-01-24T00:12:46.794Z,11.23
2024-01-24T00:15:14.015Z,10.77
2024-01-24T00:17:41.615Z,10.70
2024-01-24T00:20:10.468Z,12.25
2024-01-24T00:22:37.534Z,12.27
2024-01-24T00:25:05.002Z,12.63
2024-01-24T00:27:32.128Z,12.35
2024-01-24T00:29:59.286Z,10.82
2024-01-24T00:32:26.490Z,9.88
2024-01-24T00:34:53.646Z,9.70
2024-01-24T00:37:20.892Z,11.45
2024-01-24T00:39:49.078Z,10.90
2024-01-24T00:42:16.321Z,10.60
2024-01-24T00:44:44.981Z,13.15
2024-01-24T00:47:12.051Z,12.35
2024-01-24T00:49:39.219Z,13.68
2024-01-24T00:52:06.564Z,14.65
2024-01-24T00:54:33.776Z,13.07
2024-01-24T00:57:01.066Z,13.05
2024-01-24T00:59:28.192Z,12.02
2024-01-24T01:01:55.451Z,10.43
2024-01-24T01:04:22.727Z,9.98
2024-01-24T01:06:49.995Z,13.15
2024-01-24T01:09:17.285Z,13.35
2024-01-24T01:11:44.507Z,13.32
2024-01-24T01:14:11.892Z,13.18
2024-01-24T01:16:39.006Z,10.45
2024-01-24T01:19:06.332Z,10.23
2024-01-24T01:21:33.697Z,9.77
2024-01-24T01:24:00.907Z,10.27
2024-01-24T01:26:28.107Z,9.88
2024-01-24T01:28:55.890Z,9.30
2024-01-24T01:31:23.093Z,9.30
2024-01-24T01:33:50.371Z,8.80
2024-01-24T01:36:23.126Z,8.73
2024-01-24T01:41:18.644Z,9.05
2024-01-24T01:43:46.459Z,9.23
2024-01-24T01:46:23.180Z,9.38
2024-01-24T01:48:52.307Z,9.63
2024-01-24T01:51:21.336Z,9.85
2024-01-24T01:53:49.996Z,9.75
2024-01-24T01:56:20.268Z,10.80
2024-01-24T01:58:48.513Z,10.75
2024-01-24T02:01:16.749Z,10.43
2024-01-24T02:03:47.402Z,10.77
2024-01-24T02:06:15.077Z,13.45
2024-01-24T02:08:44.214Z,12.57
2024-01-24T02:11:13.846Z,15.45
2024-01-24T02:13:41.238Z,11.35
2024-01-24T02:16:09.527Z,11.23
2024-01-24T02:18:36.808Z,10.20
2024-01-24T02:21:04.214Z,9.75
2024-01-24T02:23:31.776Z,10.20
2024-01-24T02:25:59.138Z,10.30
2024-01-24T02:28:26.471Z,12.48
2024-01-24T02:30:53.616Z,10.45
2024-01-24T02:33:21.089Z,9.98
2024-01-24T02:35:48.357Z,13.18
2024-01-24T02:38:15.524Z,10.90
2024-01-24T02:40:42.847Z,9.85
2024-01-24T02:43:10.005Z,11.88
2024-01-24T02:45:37.202Z,10.38
2024-01-24T02:48:04.838Z,10.40
2024-01-24T02:50:31.990Z,10.38
2024-01-24T02:52:59.133Z,10.60
2024-01-24T02:55:26.359Z,12.05
2024-01-24T02:57:53.614Z,12.52
2024-01-24T03:00:21.093Z,12.18
2024-01-24T03:02:48.252Z,12.73
2024-01-24T03:05:15.470Z,17.23
2024-01-24T03:07:42.616Z,16.00
2024-01-24T03:10:09.998Z,16.60
2024-01-24T03:12:38.875Z,11.45
2024-01-24T03:15:06.917Z,14.07
2024-01-24T03:17:34.205Z,16.73
2024-01-24T03:20:01.561Z,15.50
2024-01-24T03:22:28.741Z,15.52
2024-01-24T03:24:58.850Z,13.60
2024-01-24T03:27:26.015Z,16.08
2024-01-24T03:29:53.269Z,13.05
2024-01-24T03:32:20.697Z,14.82
2024-01-24T03:34:58.984Z,11.38
2024-01-24T03:37:26.489Z,11.38
2024-01-24T03:39:53.710Z,11.60
2024-01-24T03:42:22.569Z,11.30
2024-01-24T03:44:49.945Z,10.52
2024-01-24T03:47:17.738Z,11.27
2024-01-24T03:49:44.923Z,11.38
2024-01-24T03:52:12.132Z,11.60
2024-01-24T03:54:39.255Z,16.75
2024-01-24T03:57:06.802Z,11.65
2024-01-24T03:59:37.357Z,12.98
2024-01-24T04:02:04.620Z,8.45
2024-01-24T04:04:31.802Z,9.32
2024-01-24T04:06:59.078Z,10.15
2024-01-24T04:09:26.402Z,8.77
2024-01-24T04:11:53.643Z,10.02
2024-01-24T04:14:20.814Z,9.45
2024-01-24T04:16:47.996Z,11.30
2024-01-24T04:19:16.279Z,10.77
2024-01-24T04:21:46.947Z,12.77
2024-01-24T04:24:14.297Z,13.82
2024-01-24T04:26:41.356Z,12.52
2024-01-24T04:29:11.881Z,14.60
2024-01-24T04:31:41.687Z,14.30
2024-01-24T04:34:08.849Z,14.70
2024-01-24T04:36:37.183Z,14.55
2024-01-24T04:39:06.347Z,13.45
2024-01-24T04:41:33.471Z,17.60
2024-01-24T04:44:00.691Z,21.55
2024-01-24T04:46:28.154Z,20.00
2024-01-24T04:48:55.474Z,20.70
2024-01-24T04:51:25.418Z,24.23
2024-01-24T04:53:52.672Z,22.38
2024-01-24T04:56:19.866Z,23.77
2024-01-24T04:58:46.960Z,20.52
2024-01-24T05:01:14.086Z,26.27
2024-01-24T05:03:41.312Z,25.00
2024-01-24T05:06:11.061Z,26.88
2024-01-24T05:08:38.958Z,27.17
2024-01-24T05:11:06.596Z,28.75
2024-01-24T05:13:33.943Z,28.77
2024-01-24T05:16:01.155Z,27.63
2024-01-24T05:18:28.512Z,23.83
2024-01-24T05:20:55.770Z,25.08
2024-01-24T05:23:22.884Z,25.25
2024-01-24T05:25:50.414Z,25.85
2024-01-24T05:28:17.715Z,25.67
2024-01-24T05:30:45.034Z,26.83
2024-01-24T05:33:12.343Z,26.58
2024-01-24T05:35:40.017Z,26.70
2024-01-24T05:38:07.528Z,23.35
2024-01-24T05:40:34.732Z,26.38
2024-01-24T05:43:04.046Z,24.63
2024-01-24T05:45:31.464Z,24.35
2024-01-24T05:47:58.782Z,23.65
2024-01-24T05:50:26.069Z,22.60
2024-01-24T05:52:53.132Z,23.73
2024-01-24T05:55:20.509Z,22.15
2024-01-24T05:57:48.002Z,21.60
2024-01-24T06:00:16.342Z,23.63
2024-01-24T06:02:44.734Z,25.63
2024-01-24T06:05:13.267Z,30.15
2024-01-24T06:07:40.842Z,27.85
2024-01-24T06:10:08.790Z,29.00
2024-01-24T06:12:36.008Z,28.65
2024-01-24T06:15:03.690Z,29.23
2024-01-24T06:17:31.446Z,24.67
2024-01-24T06:20:00.938Z,22.27
2024-01-24T06:22:28.099Z,25.42
2024-01-24T06:24:55.762Z,25.95
2024-01-24T06:27:22.969Z,24.70
2024-01-24T06:30:17.202Z,24.40
2024-01-24T06:32:37.540Z,23.27
2024-01-24T06:35:05.054Z,24.83
2024-01-24T06:37:33.006Z,23.35
2024-01-24T06:40:00.406Z,28.27
2024-01-24T06:42:27.762Z,31.35
2024-01-24T06:44:55.751Z,35.65
2024-01-24T06:47:22.984Z,34.78
2024-01-24T06:49:50.156Z,36.75
2024-01-24T06:52:17.787Z,35.78
2024-01-24T06:54:45.028Z,36.03
2024-01-24T06:57:12.178Z,34.88
2024-01-24T06:59:39.312Z,31.83
2024-01-24T07:02:07.218Z,30.23
2024-01-24T07:04:34.451Z,29.45
2024-01-24T07:07:01.831Z,29.88
2024-01-24T07:09:29.032Z,30.48
2024-01-24T07:11:56.216Z,30.60
2024-01-24T07:14:23.461Z,31.77
2024-01-24T07:16:50.946Z,30.80
2024-01-24T07:19:18.274Z,29.00
2024-01-24T07:21:45.464Z,25.98
2024-01-24T07:24:12.645Z,36.28
2024-01-24T07:26:39.825Z,31.67
2024-01-24T07:29:06.913Z,31.52
2024-01-24T07:31:34.138Z,31.65
2024-01-24T07:34:01.353Z,28.33
2024-01-24T07:36:28.669Z,28.02
2024-01-24T07:38:55.902Z,30.90
2024-01-24T07:41:24.730Z,32.67
2024-01-24T07:43:52.069Z,45.20
2024-01-24T07:46:19.272Z,41.90
2024-01-24T07:48:46.770Z,40.40
2024-01-24T07:51:15.668Z,45.58
2024-01-24T07:53:45.277Z,42.58
2024-01-24T07:56:20.771Z,41.85
2024-01-24T07:58:53.330Z,41.92
2024-01-24T08:01:21.880Z,43.58
2024-01-24T08:03:51.108Z,44.08
2024-01-24T08:06:19.060Z,52.33
2024-01-24T08:08:46.687Z,66.63
2024-01-24T08:11:14.027Z,73.75
2024-01-24T08:13:41.322Z,90.25
2024-01-24T08:16:09.304Z,110.38
2024-01-24T08:18:36.808Z,103.25
2024-01-24T08:21:07.694Z,81.60
2024-01-24T08:23:42.917Z,67.22
2024-01-24T08:26:16.747Z,56.83
2024-01-24T08:28:44.402Z,52.10
2024-01-24T08:31:13.487Z,49.58
2024-01-24T08:33:40.852Z,44.75
2024-01-24T08:36:08.192Z,44.78
2024-01-24T08:38:35.309Z,44.00
2024-01-24T08:41:03.275Z,35.65
2024-01-24T08:43:30.396Z,34.22
2024-01-24T08:45:57.972Z,34.88
2024-01-24T08:48:26.300Z,39.53
2024-01-24T08:50:55.245Z,36.67
2024-01-24T08:53:22.471Z,34.03
2024-01-24T08:55:49.723Z,32.35
2024-01-24T08:58:17.993Z,29.70
2024-01-24T09:00:46.616Z,27.92
2024-01-24T09:03:15.073Z,26.45
2024-01-24T09:05:43.133Z,32.60
2024-01-24T09:08:10.563Z,36.88
2024-01-24T09:10:38.096Z,40.15
2024-01-24T09:13:05.594Z,40.45
2024-01-24T09:15:32.784Z,32.33
2024-01-24T09:18:02.699Z,23.27
2024-01-24T09:20:30.003Z,21.45
2024-01-24T09:22:57.323Z,25.52
2024-01-24T09:25:24.552Z,24.90
2024-01-24T09:27:52.012Z,43.38
2024-01-24T09:30:19.758Z,50.13
2024-01-24T09:32:47.596Z,44.70
2024-01-24T09:35:14.885Z,42.15
2024-01-24T09:37:42.149Z,39.38
2024-01-24T09:40:11.125Z,35.58
2024-01-24T09:42:43.538Z,32.85
2024-01-24T09:45:11.551Z,35.17
2024-01-24T09:47:40.658Z,37.15
2024-01-24T09:50:09.641Z,35.45
2024-01-24T09:52:36.990Z,33.72
2024-01-24T09:55:06.662Z,31.85
2024-01-24T09:57:34.982Z,35.95
2024-01-24T10:00:02.435Z,33.33
2024-01-24T10:02:30.008Z,29.73
2024-01-24T10:05:00.458Z,17.92
2024-01-24T10:07:29.594Z,15.73
2024-01-24T10:10:09.105Z,16.00
2024-01-24T10:12:36.884Z,16.25
2024-01-24T10:15:04.439Z,16.30
2024-01-24T10:17:32.760Z,16.10
2024-01-24T10:20:00.472Z,15.80
2024-01-24T10:22:29.036Z,15.57
2024-01-24T10:24:56.550Z,16.08
2024-01-24T10:27:24.998Z,16.30
2024-01-24T10:29:54.670Z,16.48
2024-01-24T10:32:22.065Z,16.48
2024-01-24T10:34:51.508Z,20.42
2024-01-24T10:37:20.063Z,21.42
2024-01-24T10:39:52.038Z,21.48
2024-01-24T10:42:21.359Z,20.58
2024-01-24T10:44:51.525Z,18.17
2024-01-24T10:47:19.190Z,16.60
2024-01-24T10:49:49.565Z,17.80
2024-01-24T10:52:18.112Z,15.55
2024-01-24T10:54:49.157Z,17.25
2024-01-24T10:57:20.318Z,16.23
2024-01-24T10:59:52.063Z,14.65
2024-01-24T11:02:20.082Z,15.82
2024-01-24T11:04:48.630Z,14.70
2024-01-24T11:07:21.352Z,15.55
2024-01-24T11:10:17.272Z,14.32
2024-01-24T11:12:45.428Z,16.15
2024-01-24T11:15:15.300Z,15.90
2024-01-24T11:17:47.801Z,15.50
2024-01-24T11:20:15.573Z,16.35
2024-01-24T11:22:43.112Z,12.88
2024-01-24T11:25:13.473Z,11.48
2024-01-24T11:27:46.390Z,11.07
2024-01-24T11:30:13.882Z,11.63
2024-01-24T11:32:57.457Z,11.35
2024-01-24T11:35:43.262Z,11.63
2024-01-24T11:38:30.107Z,11.60
2024-01-24T11:41:01.580Z,11.05
2024-01-24T11:43:33.756Z,11.43
2024-01-24T11:46:05.488Z,9.48
2024-01-24T11:48:44.492Z,10.05
2024-01-24T11:51:14.241Z,10.90
2024-01-24T11:53:41.503Z,9.68
2024-01-24T11:56:17.398Z,8.55
2024-01-24T11:58:45.354Z,8.68
2024-01-24T12:01:13.646Z,7.43
2024-01-24T12:03:49.377Z,6.97
2024-01-24T12:06:18.472Z,6.80
2024-01-24T12:08:49.943Z,6.57
2024-01-24T12:11:18.838Z,6.78
2024-01-24T12:13:46.834Z,5.93
2024-01-24T12:16:14.183Z,5.57
2024-01-24T12:18:42.792Z,5.65
2024-01-24T12:21:10.859Z,4.90
2024-01-24T12:23:39.265Z,4.68
2024-01-24T12:26:06.645Z,5.47
2024-01-24T12:28:34.754Z,4.75
2024-01-24T12:31:05.990Z,5.22
2024-01-24T12:33:37.457Z,5.68
2024-01-24T12:36:06.467Z,5.23
2024-01-24T12:38:37.636Z,4.85
2024-01-24T12:41:05.801Z,4.70
2024-01-24T12:43:33.449Z,4.78
2024-01-24T12:46:12.200Z,4.00
2024-01-24T12:48:40.359Z,4.63
2024-01-24T12:51:08.291Z,4.00
2024-01-24T12:53:36.366Z,4.25
2024-01-24T12:56:03.994Z,4.75
2024-01-24T12:58:31.428Z,4.47
2024-01-24T13:00:58.790Z,5.45
2024-01-24T13:03:28.633Z,3.80
2024-01-24T13:05:57.660Z,4.45
2024-01-24T13:08:25.167Z,4.63
2024-01-24T13:10:53.619Z,6.03
2024-01-24T13:13:21.322Z,5.53
2024-01-24T13:15:49.917Z,5.13
2024-01-24T13:18:18.233Z,5.40
2024-01-24T13:20:46.059Z,6.18
2024-01-24T13:23:13.170Z,5.07
2024-01-24T13:25:40.317Z,5.97
2024-01-24T13:28:11.084Z,4.60
2024-01-24T13:30:39.765Z,4.25
2024-01-24T13:33:07.883Z,4.13
2024-01-24T13:35:35.349Z,4.68
2024-01-24T13:38:05.240Z,5.38
2024-01-24T13:40:32.868Z,4.20
2024-01-24T13:43:00.227Z,4.30
2024-01-24T13:45:27.383Z,3.17
2024-01-24T13:47:54.572Z,2.70
2024-01-24T13:50:21.728Z,4.40
2024-01-24T13:52:49.101Z,4.10
2024-01-24T13:55:17.991Z,4.63
2024-01-24T13:57:45.618Z,4.00
2024-01-24T14:00:15.646Z,5.55
2024-01-24T14:02:43.720Z,5.50
2024-01-24T14:05:12.257Z,6.28
2024-01-24T14:07:44.398Z,9.75
2024-01-24T14:10:12.944Z,16.83
2024-01-24T14:12:40.509Z,21.38
2024-01-24T14:15:15.525Z,21.30
2024-01-24T14:17:51.365Z,19.08
2024-01-24T14:20:19.126Z,12.88
2024-01-24T14:22:46.468Z,9.50
2024-01-24T14:25:14.096Z,7.13
2024-01-24T14:27:42.617Z,6.18
2024-01-24T14:30:10.645Z,7.68
2024-01-24T14:32:40.818Z,13.13
2024-01-24T14:35:09.415Z,13.50
2024-01-24T14:37:36.830Z,12.50
2024-01-24T14:40:04.645Z,12.13
2024-01-24T14:42:32.427Z,12.60
2024-01-24T14:45:00.346Z,11.60
2024-01-24T14:47:28.187Z,23.48
2024-01-24T14:49:55.444Z,24.65
2024-01-24T14:52:22.602Z,22.98
2024-01-24T14:54:49.898Z,22.08
2024-01-24T14:57:17.579Z,22.33
2024-01-24T14:59:44.711Z,32.47
2024-01-24T15:02:11.820Z,29.23
2024-01-24T15:04:38.884Z,27.77
2024-01-24T15:07:06.292Z,28.02
2024-01-24T15:09:34.891Z,31.60
2024-01-24T15:12:03.330Z,30.35
2024-01-24T15:14:30.762Z,30.38
2024-01-24T15:16:58.673Z,30.30
2024-01-24T15:19:26.327Z,32.50
2024-01-24T15:21:54.330Z,29.95
2024-01-24T15:24:22.644Z,35.45
2024-01-24T15:26:50.172Z,30.42
2024-01-24T15:29:17.859Z,25.52
2024-01-24T15:31:48.342Z,32.70
2024-01-24T15:34:16.448Z,34.10
2024-01-24T15:36:44.692Z,33.13
2024-01-24T15:39:14.522Z,22.25
2024-01-24T15:41:44.789Z,34.97
2024-01-24T15:44:12.393Z,36.20
2024-01-24T15:46:42.701Z,23.55
2024-01-24T15:49:11.626Z,44.33
2024-01-24T15:51:39.275Z,34.13
2024-01-24T15:54:07.083Z,32.88
2024-01-24T15:56:34.586Z,35.08
2024-01-24T15:59:01.926Z,34.85
2024-01-24T16:01:29.546Z,33.63
2024-01-24T16:03:59.086Z,29.05
2024-01-24T16:06:26.804Z,29.73
2024-01-24T16:08:54.246Z,24.15
2024-01-24T16:11:21.393Z,22.75
2024-01-24T16:13:48.902Z,23.73
2024-01-24T16:16:17.909Z,24.60
2024-01-24T16:18:45.225Z,19.02
2024-01-24T16:21:12.959Z,18.02
2024-01-24T16:23:40.023Z,18.23
2024-01-24T16:26:07.258Z,16.48
2024-01-24T16:28:34.421Z,16.02
2024-01-24T16:31:02.398Z,25.08
2024-01-24T16:33:30.065Z,24.83
2024-01-24T16:35:57.784Z,31.20
2024-01-24T16:38:25.172Z,31.17
2024-01-24T16:40:54.123Z,29.42
2024-01-24T16:43:23.726Z,31.90
2024-01-24T16:45:52.012Z,30.02
2024-01-24T16:48:19.628Z,28.45
2024-01-24T16:50:46.939Z,34.28
2024-01-24T16:53:15.001Z,30.73
2024-01-24T16:55:42.251Z,32.80
2024-01-24T16:58:10.726Z,32.08
2024-01-24T17:00:37.952Z,32.97
2024-01-24T17:03:05.723Z,35.42
2024-01-24T17:05:33.165Z,42.53
2024-01-24T17:08:00.412Z,38.95
2024-01-24T17:10:27.633Z,43.63
2024-01-24T17:12:55.711Z,47.15
2024-01-24T17:15:22.994Z,42.10
2024-01-24T17:17:50.242Z,44.70
2024-01-24T17:20:17.805Z,45.03
2024-01-24T17:22:45.086Z,43.47
2024-01-24T17:25:18.534Z,47.90
2024-01-24T17:27:45.926Z,35.35
2024-01-24T17:30:14.632Z,45.85
2024-01-24T17:32:43.055Z,45.08
2024-01-24T17:35:10.288Z,44.40
2024-01-24T17:37:37.491Z,42.13
2024-01-24T17:40:06.041Z,55.70
2024-01-24T17:42:33.488Z,45.90
2024-01-24T17:45:00.834Z,34.83
2024-01-24T17:47:28.007Z,29.50
2024-01-24T17:49:55.548Z,34.78
2024-01-24T17:52:23.151Z,29.63
2024-01-24T17:54:50.516Z,29.10
2024-01-24T17:57:17.774Z,32.75
2024-01-24T17:59:45.120Z,39.00
2024-01-24T18:02:12.301Z,31.05
2024-01-24T18:04:39.562Z,29.70
2024-01-24T18:07:06.867Z,29.92
2024-01-24T18:09:35.175Z,33.13
2024-01-24T18:12:02.498Z,34.95
2024-01-24T18:14:29.622Z,40.20
2024-01-24T18:16:56.894Z,32.63
2024-01-24T18:19:24.424Z,32.30
2024-01-24T18:21:51.649Z,35.50
2024-01-24T18:24:18.890Z,37.55
2024-01-24T18:26:46.279Z,36.58
2024-01-24T18:29:14.929Z,40.28
2024-01-24T18:31:43.134Z,31.55
2024-01-24T18:34:10.294Z,30.65
2024-01-24T18:36:37.569Z,29.85
2024-01-24T18:39:04.910Z,26.25
2024-01-24T18:41:32.171Z,29.70
2024-01-24T18:43:59.499Z,27.38
2024-01-24T18:46:28.534Z,28.92
2024-01-24T18:48:57.308Z,27.65
2024-01-24T18:51:25.998Z,28.45
2024-01-24T18:53:53.309Z,30.52
2024-01-24T18:56:20.459Z,29.77
2024-01-24T18:58:47.778Z,28.52
2024-01-24T19:01:15.281Z,30.23
2024-01-24T19:03:42.805Z,28.15
2024-01-24T19:06:10.192Z,28.63
2024-01-24T19:08:37.625Z,32.53
2024-01-24T19:11:05.530Z,29.95
2024-01-24T19:13:35.955Z,32.53
2024-01-24T19:16:03.228Z,33.72
2024-01-24T19:18:30.670Z,38.45
2024-01-24T19:20:58.012Z,37.55
2024-01-24T19:23:25.325Z,31.90
2024-01-24T19:25:52.767Z,30.13
2024-01-24T19:28:21.012Z,28.05
2024-01-24T19:30:48.360Z,34.15
2024-01-24T19:33:15.967Z,39.95
2024-01-24T19:35:43.343Z,44.28
2024-01-24T19:38:11.604Z,40.83
2024-01-24T19:40:38.762Z,43.35
2024-01-24T19:43:05.999Z,39.15
2024-01-24T19:45:33.566Z,44.47
2024-01-24T19:48:00.903Z,41.22
2024-01-24T19:50:28.124Z,42.33
2024-01-24T19:52:56.804Z,38.85
2024-01-24T19:55:25.217Z,38.25
2024-01-24T19:57:52.616Z,40.70
2024-01-24T20:00:20.129Z,39.40
2024-01-24T20:02:47.788Z,38.08
2024-01-24T20:05:15.206Z,43.65
2024-01-24T20:07:44.783Z,45.70
2024-01-24T20:10:12.431Z,52.50
2024-01-24T20:12:39.785Z,41.88
2024-01-24T20:15:07.829Z,40.10
2024-01-24T20:17:36.155Z,48.47
2024-01-24T20:20:05.421Z,42.13
2024-01-24T20:22:32.803Z,38.88
2024-01-24T20:25:00.087Z,39.10
2024-01-24T20:27:27.574Z,35.00
2024-01-24T20:29:55.181Z,34.45
2024-01-24T20:32:22.491Z,31.83
2024-01-24T20:34:50.135Z,31.50
2024-01-24T20:37:20.411Z,32.10
2024-01-24T20:39:47.580Z,38.08
2024-01-24T20:42:21.152Z,38.33
2024-01-24T20:44:52.567Z,39.10
2024-01-24T20:47:19.795Z,64.93
2024-01-24T20:49:47.091Z,74.85
2024-01-24T20:52:14.320Z,66.60
2024-01-24T20:54:41.433Z,70.22
2024-01-24T20:57:09.888Z,74.63
2024-01-24T20:59:38.107Z,67.75
2024-01-24T21:02:06.484Z,59.33
2024-01-24T21:04:34.641Z,63.15
2024-01-24T21:07:01.935Z,68.28
2024-01-24T21:09:29.727Z,65.10
2024-01-24T21:11:58.392Z,74.20
2024-01-24T21:14:26.255Z,75.60
2024-01-24T21:16:54.381Z,64.00
2024-01-24T21:19:25.488Z,51.97
2024-01-24T21:21:53.421Z,54.30
2024-01-24T21:24:20.929Z,51.08
2024-01-24T21:26:48.795Z,53.97
2024-01-24T21:29:15.996Z,67.22
2024-01-24T21:31:49.174Z,79.95
2024-01-24T21:36:48.330Z,62.58
2024-01-24T21:39:17.395Z,65.95
2024-01-24T21:41:44.591Z,61.17
2024-01-24T21:44:11.795Z,62.28
2024-01-24T21:46:38.997Z,76.50
2024-01-24T21:49:06.473Z,77.38
2024-01-24T21:51:33.752Z,76.28
2024-01-24T21:54:00.900Z,66.85
2024-01-24T21:56:28.191Z,61.75
2024-01-24T21:58:56.649Z,53.17
2024-01-24T22:01:24.686Z,49.28
2024-01-24T22:03:52.490Z,47.55
2024-01-24T22:06:20.108Z,50.15
2024-01-24T22:08:47.369Z,67.18
2024-01-24T22:11:15.636Z,53.78
2024-01-24T22:13:42.945Z,54.33
2024-01-24T22:16:10.454Z,55.22
2024-01-24T22:18:44.388Z,61.38
2024-01-24T22:21:15.549Z,64.10
2024-01-24T22:23:42.751Z,67.07
2024-01-24T22:26:10.046Z,65.70
2024-01-24T22:28:37.140Z,66.05
2024-01-24T22:31:04.692Z,67.40
2024-01-24T22:33:32.107Z,62.10
2024-01-24T22:35:59.660Z,60.75
2024-01-24T22:38:26.831Z,58.42
2024-01-24T22:40:54.031Z,60.92
2024-01-24T22:43:21.172Z,58.75
2024-01-24T22:45:48.430Z,56.10
2024-01-24T22:48:17.221Z,55.75
2024-01-24T22:50:44.491Z,53.33
2024-01-24T22:53:11.630Z,55.55
2024-01-24T22:55:38.841Z,55.15
2024-01-24T22:58:06.081Z,56.97
2024-01-24T23:00:33.290Z,57.22
2024-01-24T23:03:00.500Z,51.85
2024-01-24T23:05:27.841Z,60.90
2024-01-24T23:07:55.141Z,59.28
2024-01-24T23:10:22.577Z,61.95
2024-01-24T23:12:49.825Z,58.10
2024-01-24T23:15:17.481Z,60.38
2024-01-24T23:17:44.580Z,57.92
2024-01-24T23:20:12.409Z,77.68
2024-01-24T23:22:39.674Z,71.88
2024-01-24T23:25:07.286Z,67.65
2024-01-24T23:27:34.625Z,63.80
2024-01-24T23:30:01.911Z,65.47
2024-01-24T23:32:29.020Z,67.95
2024-01-24T23:34:56.379Z,65.95
2024-01-24T23:37:23.713Z,70.93
2024-01-24T23:39:50.935Z,69.10
2024-01-24T23:42:18.317Z,66.07
2024-01-24T23:44:45.473Z,64.20
2024-01-24T23:47:12.733Z,62.15
2024-01-24T23:49:40.112Z,51.00
2024-01-24T23:52:08.778Z,59.78
2024-01-24T23:54:36.222Z,51.90
2024-01-24T23:57:03.577Z,53.15
2024-01-24T23:59:30.699Z,55.78
